Cristalia, Brazil
Current Conditions -  °F | °C
As of 3:00 PM on Sunday 21 Dec 2014 (Local Time) from SBPL Reporting Station
Broken Clouds Broken Clouds  
Wind Chill: 91°   Ceiling: 4000
Heat Index: 98°   Visibility: 6mi
Dew Point: 72°   Wind: 8mph
Humidity: 52%   Direction: 200°SSW
Pressure: 29.88"   Gusts: NA
Location:  8.81°S, 40.35°W
Report Text: SBPL 211800Z 20007KT 9999 BKN040 33/22 Q1012
Loading
Personal Weather Stations






























Interactive Weather Map New forecast layout! Learn more

10-Day Weather Forecast

Advertisements
Track Severe Weather on mobile